createdAt,value
2023-04-27T00:00:28.601Z,8.70
2023-04-27T00:03:49.919Z,8.20
2023-04-27T00:06:52.808Z,16.90
2023-04-27T00:09:55.586Z,17.00
2023-04-27T00:12:59.157Z,13.50
2023-04-27T00:16:04.214Z,10.30
2023-04-27T00:19:08.639Z,8.00
2023-04-27T00:22:11.430Z,8.60
2023-04-27T00:25:14.210Z,8.70
2023-04-27T00:28:16.977Z,8.70
2023-04-27T00:31:19.783Z,10.70
2023-04-27T00:34:22.703Z,9.30
2023-04-27T00:37:25.604Z,9.90
2023-04-27T00:40:28.398Z,8.70
2023-04-27T00:43:32.747Z,9.50
2023-04-27T00:46:36.416Z,9.00
2023-04-27T00:49:40.741Z,9.10
2023-04-27T00:52:44.221Z,8.60
2023-04-27T00:55:47.290Z,9.90
2023-04-27T00:58:50.394Z,11.10
2023-04-27T01:01:55.242Z,10.60
2023-04-27T01:04:58.272Z,11.30
2023-04-27T01:08:01.008Z,11.60
2023-04-27T01:11:03.805Z,12.90
2023-04-27T01:14:07.985Z,12.80
2023-04-27T01:17:11.032Z,12.90
2023-04-27T01:20:15.169Z,14.70
2023-04-27T01:23:19.195Z,15.10
2023-04-27T01:26:22.616Z,18.40
2023-04-27T01:29:25.451Z,15.50
2023-04-27T01:32:28.436Z,16.90
2023-04-27T01:35:31.794Z,16.90
2023-04-27T01:38:36.374Z,19.60
2023-04-27T01:41:39.144Z,18.90
2023-04-27T01:44:41.918Z,18.90
2023-04-27T01:47:45.650Z,19.30
2023-04-27T01:50:48.509Z,18.80
2023-04-27T01:53:51.279Z,19.10
2023-04-27T01:56:54.075Z,19.10
2023-04-27T01:59:56.970Z,20.20
2023-04-27T02:03:00.788Z,20.00
2023-04-27T02:06:04.421Z,22.10
2023-04-27T02:09:07.656Z,21.40
2023-04-27T02:12:10.711Z,21.80
2023-04-27T02:15:13.771Z,21.90
2023-04-27T02:18:16.772Z,21.80
2023-04-27T02:21:19.750Z,21.10
2023-04-27T02:24:22.554Z,21.20
2023-04-27T02:27:25.685Z,22.70
2023-04-27T02:30:28.772Z,22.70
2023-04-27T02:33:33.352Z,22.70
2023-04-27T02:36:36.092Z,21.50
2023-04-27T02:39:38.819Z,22.70
2023-04-27T02:42:42.373Z,22.60
2023-04-27T02:45:46.986Z,22.40
2023-04-27T02:48:49.843Z,23.20
2023-04-27T02:51:52.653Z,25.30
2023-04-27T02:54:55.493Z,25.40
2023-04-27T02:57:58.243Z,22.20
2023-04-27T03:01:01.254Z,24.30
2023-04-27T03:04:04.460Z,25.80
2023-04-27T03:07:07.535Z,23.40
2023-04-27T03:10:10.868Z,23.70
2023-04-27T03:13:15.673Z,24.50
2023-04-27T03:16:19.924Z,24.50
2023-04-27T03:19:23.449Z,23.60
2023-04-27T03:22:26.876Z,22.40
2023-04-27T03:25:29.609Z,23.00
2023-04-27T03:28:32.503Z,23.20
2023-04-27T03:31:36.087Z,26.80
2023-04-27T03:34:38.996Z,25.40
2023-04-27T03:37:41.797Z,25.00
2023-04-27T03:40:44.504Z,24.30
2023-04-27T03:43:47.732Z,22.90
2023-04-27T03:46:50.655Z,23.20
2023-04-27T03:49:53.562Z,23.00
2023-04-27T03:52:56.659Z,23.50
2023-04-27T03:55:59.532Z,23.10
2023-04-27T03:59:05.053Z,21.80
2023-04-27T04:02:09.707Z,21.80
2023-04-27T04:05:14.699Z,21.30
2023-04-27T04:08:17.738Z,22.10
2023-04-27T04:11:20.628Z,21.30
2023-04-27T04:14:23.649Z,21.10
2023-04-27T04:17:26.917Z,22.10
2023-04-27T04:20:29.647Z,22.70
2023-04-27T04:23:34.014Z,22.60
2023-04-27T04:26:37.637Z,22.10
2023-04-27T04:29:40.697Z,21.90
2023-04-27T04:32:45.146Z,21.40
2023-04-27T04:35:48.727Z,21.30
2023-04-27T04:38:54.178Z,21.20
2023-04-27T04:41:57.755Z,20.50
2023-04-27T04:45:04.450Z,20.60
2023-04-27T04:48:08.849Z,21.60
2023-04-27T04:51:11.807Z,21.20
2023-04-27T04:54:15.539Z,19.80
2023-04-27T04:57:18.339Z,19.20
2023-04-27T05:00:22.672Z,20.60
2023-04-27T05:03:25.590Z,19.50
2023-04-27T05:06:29.408Z,19.00
2023-04-27T05:09:32.594Z,17.60
2023-04-27T05:12:35.501Z,18.80
2023-04-27T05:15:38.282Z,16.50
2023-04-27T05:18:41.748Z,19.10
2023-04-27T05:21:45.639Z,18.60
2023-04-27T05:24:48.559Z,24.40
2023-04-27T05:27:51.416Z,17.50
2023-04-27T05:30:54.143Z,18.10
2023-04-27T05:33:56.914Z,17.00
2023-04-27T05:36:59.639Z,18.40
2023-04-27T05:40:02.513Z,46.80
2023-04-27T05:43:05.694Z,25.90
2023-04-27T05:46:08.788Z,18.10
2023-04-27T05:49:12.011Z,15.70
2023-04-27T05:52:14.962Z,16.00
2023-04-27T05:55:17.680Z,16.40
2023-04-27T05:58:20.720Z,15.70
2023-04-27T06:01:23.883Z,16.00
2023-04-27T06:04:27.085Z,19.00
2023-04-27T06:07:30.019Z,18.50
2023-04-27T06:10:32.772Z,13.90
2023-04-27T06:13:35.483Z,15.90
2023-04-27T06:16:38.336Z,15.70
2023-04-27T06:19:41.116Z,13.50
2023-04-27T06:22:43.884Z,16.60
2023-04-27T06:25:46.589Z,12.00
2023-04-27T06:28:49.339Z,13.50
2023-04-27T06:31:52.214Z,14.00
2023-04-27T06:34:55.072Z,10.40
2023-04-27T06:37:58.901Z,10.80
2023-04-27T06:41:03.059Z,12.10
2023-04-27T06:44:05.790Z,12.70
2023-04-27T06:47:08.528Z,10.20
2023-04-27T06:50:11.469Z,10.70
2023-04-27T06:53:14.502Z,9.90
2023-04-27T06:56:17.253Z,8.00
2023-04-27T06:59:20.489Z,8.60
2023-04-27T07:02:25.456Z,7.50
2023-04-27T07:05:28.534Z,8.70
2023-04-27T07:08:31.416Z,7.50
2023-04-27T07:11:34.279Z,6.60
2023-04-27T07:14:37.145Z,8.40
2023-04-27T07:17:39.966Z,6.40
2023-04-27T07:20:42.878Z,8.00
2023-04-27T07:23:46.539Z,5.90
2023-04-27T07:26:49.450Z,5.60
2023-04-27T07:29:53.435Z,8.50
2023-04-27T07:32:56.809Z,6.60
2023-04-27T07:36:00.207Z,8.70
2023-04-27T07:39:04.991Z,7.00
2023-04-27T07:42:07.770Z,6.50
2023-04-27T07:45:10.685Z,7.60
2023-04-27T07:48:13.485Z,8.80
2023-04-27T07:51:17.554Z,9.80
2023-04-27T07:54:20.682Z,8.50
2023-04-27T07:57:23.754Z,9.00
2023-04-27T08:00:26.860Z,8.90
2023-04-27T08:03:29.847Z,6.80
2023-04-27T08:06:33.289Z,9.20
2023-04-27T08:09:36.667Z,6.70
2023-04-27T08:12:57.875Z,7.10
2023-04-27T08:16:00.751Z,6.00
2023-04-27T08:19:03.565Z,6.40
2023-04-27T08:22:06.452Z,6.60
2023-04-27T08:25:09.905Z,5.00
2023-04-27T08:28:13.819Z,4.20
2023-04-27T08:31:16.736Z,5.20
2023-04-27T08:34:19.644Z,5.40
2023-04-27T08:37:22.439Z,5.80
2023-04-27T08:40:25.623Z,5.60
2023-04-27T08:43:35.508Z,5.60
2023-04-27T08:46:39.147Z,5.50
2023-04-27T08:49:42.777Z,5.50
2023-04-27T08:52:46.926Z,4.70
2023-04-27T08:55:50.785Z,6.50
2023-04-27T08:58:54.909Z,6.70
2023-04-27T09:01:57.686Z,6.10
2023-04-27T09:05:00.666Z,4.90
2023-04-27T09:08:08.044Z,3.60
2023-04-27T09:11:11.542Z,3.80
2023-04-27T09:14:18.450Z,3.40
2023-04-27T09:17:26.323Z,3.80
2023-04-27T09:20:29.431Z,3.40
2023-04-27T09:23:34.113Z,3.70
2023-04-27T09:26:37.630Z,3.80
2023-04-27T09:29:40.576Z,3.90
2023-04-27T09:32:52.767Z,3.90
2023-04-27T09:35:58.033Z,4.60
2023-04-27T09:39:07.325Z,3.50
2023-04-27T09:42:12.300Z,3.60
2023-04-27T09:45:16.320Z,3.20
2023-04-27T09:48:20.929Z,3.30
2023-04-27T09:51:23.742Z,4.10
2023-04-27T09:54:30.334Z,4.60
2023-04-27T09:57:52.460Z,3.30
2023-04-27T10:01:07.367Z,5.30
2023-04-27T10:04:21.405Z,4.10
2023-04-27T10:07:27.103Z,3.80
2023-04-27T10:10:29.830Z,5.50
2023-04-27T10:13:32.787Z,4.60
2023-04-27T10:16:52.219Z,3.80
2023-04-27T10:20:03.916Z,4.00
2023-04-27T10:23:06.799Z,8.80
2023-04-27T10:26:09.522Z,5.40
2023-04-27T10:29:16.303Z,4.00
2023-04-27T10:32:21.858Z,5.30
2023-04-27T10:35:36.213Z,4.40
2023-04-27T10:38:40.610Z,6.20
2023-04-27T10:41:54.827Z,4.10
2023-04-27T10:44:58.227Z,3.40
2023-04-27T10:48:01.740Z,4.50
2023-04-27T10:51:04.964Z,4.60
2023-04-27T10:54:08.729Z,12.30
2023-04-27T10:57:12.617Z,4.40
2023-04-27T11:00:22.702Z,3.90
2023-04-27T11:03:25.911Z,3.80
2023-04-27T11:06:30.474Z,3.50
2023-04-27T11:09:33.340Z,3.50
2023-04-27T11:12:36.668Z,3.50
2023-04-27T11:15:46.768Z,8.00
2023-04-27T11:18:49.601Z,6.20
2023-04-27T11:21:52.579Z,5.00
2023-04-27T11:24:56.405Z,3.70
2023-04-27T11:27:59.123Z,5.80
2023-04-27T11:31:02.104Z,6.00
2023-04-27T11:34:04.872Z,4.20
2023-04-27T11:40:15.776Z,3.80
2023-04-27T11:43:18.766Z,3.90
2023-04-27T11:46:22.418Z,4.10
2023-04-27T11:49:25.853Z,2.90
2023-04-27T11:52:33.026Z,3.60
2023-04-27T11:55:37.456Z,7.10
2023-04-27T11:58:40.472Z,5.40
2023-04-27T12:01:43.353Z,3.00
2023-04-27T12:04:46.724Z,6.90
2023-04-27T12:07:49.730Z,3.30
2023-04-27T12:10:52.518Z,4.70
2023-04-27T12:13:56.942Z,5.80
2023-04-27T12:17:00.070Z,5.00
2023-04-27T12:20:03.708Z,4.30
2023-04-27T12:23:06.688Z,3.30
2023-04-27T12:26:10.208Z,3.20
2023-04-27T12:29:13.080Z,5.60
2023-04-27T12:32:16.348Z,3.70
2023-04-27T12:35:19.130Z,3.20
2023-04-27T12:38:22.583Z,3.20
2023-04-27T12:41:25.604Z,3.70
2023-04-27T12:44:28.371Z,3.70
2023-04-27T12:47:53.877Z,3.00
2023-04-27T12:50:55.036Z,2.90
2023-04-27T12:54:00.187Z,3.00
2023-04-27T12:57:06.736Z,2.30
2023-04-27T13:00:10.379Z,3.00
2023-04-27T13:03:13.489Z,2.50
2023-04-27T13:06:16.785Z,6.40
2023-04-27T13:09:19.652Z,3.50
2023-04-27T13:12:22.517Z,2.90
2023-04-27T13:15:25.598Z,3.20
2023-04-27T13:18:32.785Z,5.40
2023-04-27T13:21:37.785Z,8.30
2023-04-27T13:24:42.186Z,13.80
2023-04-27T13:27:44.888Z,5.10
2023-04-27T13:30:48.971Z,8.90
2023-04-27T13:33:53.479Z,5.30
2023-04-27T13:36:56.185Z,12.00
2023-04-27T13:39:58.944Z,6.60
2023-04-27T13:43:01.750Z,9.90
2023-04-27T13:46:05.522Z,8.80
2023-04-27T13:49:08.292Z,9.40
2023-04-27T13:52:11.037Z,6.80
2023-04-27T13:55:13.834Z,10.50
2023-04-27T13:58:16.556Z,6.20
2023-04-27T14:01:20.147Z,10.00
2023-04-27T14:04:23.274Z,6.40
2023-04-27T14:07:26.222Z,8.70
2023-04-27T14:10:30.434Z,6.40
2023-04-27T14:13:33.250Z,7.00
2023-04-27T14:16:36.098Z,5.10
2023-04-27T14:19:38.935Z,11.60
2023-04-27T14:22:41.760Z,5.50
2023-04-27T14:25:44.537Z,4.00
2023-04-27T14:28:47.368Z,3.70
2023-04-27T14:31:50.268Z,11.10
2023-04-27T14:34:53.135Z,3.80
2023-04-27T14:37:57.237Z,5.40
2023-04-27T14:41:00.461Z,3.60
2023-04-27T14:44:07.480Z,4.50
2023-04-27T14:47:10.584Z,5.20
2023-04-27T14:50:13.583Z,4.30
2023-04-27T14:53:16.600Z,4.60
2023-04-27T14:56:19.395Z,5.00
2023-04-27T14:59:23.153Z,4.40
2023-04-27T15:02:26.517Z,5.60
2023-04-27T15:05:29.704Z,5.30
2023-04-27T15:08:34.287Z,6.30
2023-04-27T15:11:37.370Z,3.90
2023-04-27T15:14:40.256Z,4.50
2023-04-27T15:17:43.214Z,5.30
2023-04-27T15:20:53.518Z,4.60
2023-04-27T15:23:56.238Z,4.20
2023-04-27T15:26:59.562Z,9.00
2023-04-27T15:30:04.100Z,6.20
2023-04-27T15:33:10.078Z,6.10
2023-04-27T15:36:13.229Z,4.90
2023-04-27T15:39:16.591Z,5.20
2023-04-27T15:42:19.642Z,4.30
2023-04-27T15:45:22.658Z,6.40
2023-04-27T15:48:25.393Z,6.60
2023-04-27T15:51:28.518Z,5.50
2023-04-27T15:54:31.245Z,6.70
2023-04-27T15:57:34.295Z,9.20
2023-04-27T16:00:37.088Z,6.10
2023-04-27T16:03:40.140Z,8.40
2023-04-27T16:06:43.021Z,6.00
2023-04-27T16:09:45.986Z,7.80
2023-04-27T16:12:48.881Z,6.50
2023-04-27T16:15:51.594Z,10.00
2023-04-27T16:18:54.429Z,9.70
2023-04-27T16:21:57.348Z,9.00
2023-04-27T16:25:00.123Z,13.80
2023-04-27T16:28:03.020Z,14.00
2023-04-27T16:31:06.142Z,16.30
2023-04-27T16:34:08.939Z,13.50
2023-04-27T16:37:12.002Z,12.70
2023-04-27T16:40:14.824Z,20.50
2023-04-27T16:43:17.739Z,20.40
2023-04-27T16:46:20.580Z,11.80
2023-04-27T16:49:23.404Z,41.30
2023-04-27T16:52:26.589Z,21.80
2023-04-27T16:55:29.513Z,17.40
2023-04-27T16:58:36.129Z,31.80
2023-04-27T17:01:39.128Z,13.80
2023-04-27T17:04:42.096Z,11.00
2023-04-27T17:07:45.098Z,29.10
2023-04-27T17:10:48.049Z,18.80
2023-04-27T17:13:50.932Z,28.30
2023-04-27T17:16:53.677Z,44.50
2023-04-27T17:19:57.549Z,37.80
2023-04-27T17:23:00.463Z,34.40
2023-04-27T17:26:03.478Z,40.70
2023-04-27T17:29:06.194Z,22.60
2023-04-27T17:32:09.575Z,13.60
2023-04-27T17:35:12.497Z,29.40
2023-04-27T17:38:16.233Z,38.50
2023-04-27T17:41:19.016Z,41.90
2023-04-27T17:44:21.777Z,37.60
2023-04-27T17:47:25.895Z,16.30
2023-04-27T17:50:30.558Z,13.20
2023-04-27T17:53:33.476Z,12.90
2023-04-27T17:56:36.435Z,11.60
2023-04-27T17:59:39.297Z,10.50
2023-04-27T18:02:42.517Z,11.30
2023-04-27T18:05:45.792Z,11.30
2023-04-27T18:08:49.453Z,11.20
2023-04-27T18:11:52.192Z,10.50
2023-04-27T18:14:55.438Z,12.60
2023-04-27T18:17:58.361Z,14.20
2023-04-27T18:21:01.332Z,12.90
2023-04-27T18:24:04.410Z,13.90
2023-04-27T18:27:07.276Z,10.40
2023-04-27T18:30:10.582Z,12.70
2023-04-27T18:33:13.450Z,20.70
2023-04-27T18:36:16.361Z,15.50
2023-04-27T18:39:20.477Z,31.80
2023-04-27T18:42:23.586Z,17.00
2023-04-27T18:45:26.797Z,17.20
2023-04-27T18:48:29.650Z,20.00
2023-04-27T18:51:32.460Z,14.40
2023-04-27T18:54:35.451Z,17.10
2023-04-27T18:57:38.259Z,14.30
2023-04-27T19:00:41.059Z,20.60
2023-04-27T19:03:44.960Z,30.60
2023-04-27T19:06:49.966Z,26.40
2023-04-27T19:09:55.214Z,20.70
2023-04-27T19:12:58.163Z,21.70
2023-04-27T19:16:01.012Z,23.60
2023-04-27T19:19:04.441Z,28.20
2023-04-27T19:22:08.215Z,15.80
2023-04-27T19:25:11.174Z,15.40
2023-04-27T19:28:16.317Z,17.70
2023-04-27T19:31:19.360Z,21.30
2023-04-27T19:34:22.785Z,14.80
2023-04-27T19:37:27.495Z,16.70
2023-04-27T19:40:30.966Z,15.20
2023-04-27T19:43:34.248Z,12.60
2023-04-27T19:46:37.107Z,14.90
2023-04-27T19:49:39.958Z,24.80
2023-04-27T19:52:43.421Z,20.80
2023-04-27T19:55:46.844Z,14.70
2023-04-27T19:58:49.582Z,15.10
2023-04-27T20:01:52.338Z,16.30
2023-04-27T20:04:55.425Z,15.90
2023-04-27T20:07:58.924Z,17.60
2023-04-27T20:11:01.655Z,18.70
2023-04-27T20:14:04.467Z,17.50
2023-04-27T20:17:07.269Z,16.20
2023-04-27T20:20:11.419Z,21.30
2023-04-27T20:23:14.140Z,17.80
2023-04-27T20:26:16.973Z,16.60
2023-04-27T20:29:19.755Z,16.00
2023-04-27T20:32:22.552Z,15.50
2023-04-27T20:35:25.561Z,18.10
2023-04-27T20:38:28.350Z,17.70
2023-04-27T20:41:33.752Z,21.40
2023-04-27T20:44:37.036Z,21.90
2023-04-27T20:47:40.013Z,19.60
2023-04-27T20:50:43.051Z,19.70
2023-04-27T20:53:45.807Z,19.30
2023-04-27T20:56:48.728Z,20.10
2023-04-27T20:59:51.480Z,16.30
2023-04-27T21:02:54.578Z,16.60
2023-04-27T21:05:57.482Z,17.90
2023-04-27T21:09:00.560Z,19.90
2023-04-27T21:12:03.391Z,22.10
2023-04-27T21:15:07.013Z,22.30
2023-04-27T21:18:18.945Z,23.20
2023-04-27T21:21:31.939Z,20.60
2023-04-27T21:24:34.669Z,21.70
2023-04-27T21:27:37.734Z,20.20
2023-04-27T21:30:40.932Z,22.40
2023-04-27T21:33:43.753Z,24.60
2023-04-27T21:36:46.648Z,26.20
2023-04-27T21:39:49.765Z,24.10
2023-04-27T21:42:53.915Z,23.00
2023-04-27T21:45:56.714Z,29.30
2023-04-27T21:48:59.487Z,24.80
2023-04-27T21:52:02.275Z,29.00
2023-04-27T21:55:05.604Z,23.20
2023-04-27T21:58:08.481Z,23.30
2023-04-27T22:01:13.080Z,21.60
2023-04-27T22:04:16.990Z,21.90
2023-04-27T22:07:20.446Z,20.50
2023-04-27T22:10:23.408Z,21.00
2023-04-27T22:13:26.183Z,22.50
2023-04-27T22:16:30.246Z,22.10
2023-04-27T22:19:34.132Z,22.10
2023-04-27T22:22:37.769Z,21.70
2023-04-27T22:25:42.959Z,22.10
2023-04-27T22:28:46.102Z,22.80
2023-04-27T22:31:48.895Z,22.20
2023-04-27T22:34:51.695Z,21.90
2023-04-27T22:37:55.875Z,24.00
2023-04-27T22:40:58.754Z,26.00
2023-04-27T22:44:01.808Z,28.40
2023-04-27T22:47:05.919Z,25.10
2023-04-27T22:50:10.303Z,25.30
2023-04-27T22:53:13.009Z,25.00
2023-04-27T22:56:15.924Z,30.20
2023-04-27T22:59:22.898Z,29.60
2023-04-27T23:02:25.979Z,25.00
2023-04-27T23:05:29.138Z,30.90
2023-04-27T23:08:31.917Z,24.50
2023-04-27T23:11:35.059Z,24.70
2023-04-27T23:14:37.860Z,25.40
2023-04-27T23:17:41.379Z,40.30
2023-04-27T23:20:44.180Z,54.70
2023-04-27T23:23:47.325Z,56.40
2023-04-27T23:26:50.053Z,52.70
2023-04-27T23:29:53.026Z,52.50
2023-04-27T23:32:56.101Z,42.80
2023-04-27T23:35:59.614Z,38.10
2023-04-27T23:39:02.367Z,51.50
2023-04-27T23:42:05.230Z,52.00
2023-04-27T23:45:08.665Z,44.50
2023-04-27T23:48:11.487Z,49.80
2023-04-27T23:51:14.596Z,43.10
2023-04-27T23:54:17.811Z,41.30
2023-04-27T23:57:20.835Z,50.50
